sensor_id;sensor_type;location;lat;lon;timestamp;P1;durP1;ratioP1;P2;durP2;ratioP2
2618;SDS011;1319;52.346;13.096;2024-02-14T00:02:15;22.83;;;11.23;;
2618;SDS011;1319;52.346;13.096;2024-02-14T00:04:40;25.13;;;12.37;;
2618;SDS011;1319;52.346;13.096;2024-02-14T00:07:05;26.87;;;11.80;;
2618;SDS011;1319;52.346;13.096;2024-02-14T00:09:31;22.93;;;12.13;;
2618;SDS011;1319;52.346;13.096;2024-02-14T00:11:56;22.13;;;11.57;;
2618;SDS011;1319;52.346;13.096;2024-02-14T00:14:21;23.87;;;11.67;;
2618;SDS011;1319;52.346;13.096;2024-02-14T00:16:46;22.00;;;11.70;;
2618;SDS011;1319;52.346;13.096;2024-02-14T00:19:12;22.00;;;11.00;;
2618;SDS011;1319;52.346;13.096;2024-02-14T00:21:37;21.70;;;11.33;;
2618;SDS011;1319;52.346;13.096;2024-02-14T00:24:03;22.43;;;11.43;;
2618;SDS011;1319;52.346;13.096;2024-02-14T00:26:29;20.50;;;10.53;;
2618;SDS011;1319;52.346;13.096;2024-02-14T00:28:55;27.43;;;12.80;;
2618;SDS011;1319;52.346;13.096;2024-02-14T00:31:20;21.60;;;10.77;;
2618;SDS011;1319;52.346;13.096;2024-02-14T00:33:45;21.67;;;11.67;;
2618;SDS011;1319;52.346;13.096;2024-02-14T00:36:11;24.67;;;11.53;;
2618;SDS011;1319;52.346;13.096;2024-02-14T00:38:36;25.63;;;12.13;;
2618;SDS011;1319;52.346;13.096;2024-02-14T00:41:01;23.87;;;11.40;;
2618;SDS011;1319;52.346;13.096;2024-02-14T00:43:26;24.87;;;11.53;;
2618;SDS011;1319;52.346;13.096;2024-02-14T00:45:52;21.63;;;11.70;;
2618;SDS011;1319;52.346;13.096;2024-02-14T00:48:17;22.53;;;11.67;;
2618;SDS011;1319;52.346;13.096;2024-02-14T00:50:42;19.80;;;10.77;;
2618;SDS011;1319;52.346;13.096;2024-02-14T00:53:08;21.30;;;10.90;;
2618;SDS011;1319;52.346;13.096;2024-02-14T00:55:33;22.00;;;11.47;;
2618;SDS011;1319;52.346;13.096;2024-02-14T00:57:58;25.53;;;11.37;;
2618;SDS011;1319;52.346;13.096;2024-02-14T01:00:24;24.20;;;12.07;;
2618;SDS011;1319;52.346;13.096;2024-02-14T01:02:49;24.27;;;11.67;;
2618;SDS011;1319;52.346;13.096;2024-02-14T01:05:14;23.90;;;11.53;;
2618;SDS011;1319;52.346;13.096;2024-02-14T01:07:39;24.53;;;11.07;;
2618;SDS011;1319;52.346;13.096;2024-02-14T01:10:05;27.50;;;11.00;;
2618;SDS011;1319;52.346;13.096;2024-02-14T01:12:30;24.83;;;11.00;;
2618;SDS011;1319;52.346;13.096;2024-02-14T01:14:55;23.13;;;11.07;;
2618;SDS011;1319;52.346;13.096;2024-02-14T01:17:20;33.87;;;12.53;;
2618;SDS011;1319;52.346;13.096;2024-02-14T01:19:46;27.87;;;13.33;;
2618;SDS011;1319;52.346;13.096;2024-02-14T01:22:11;32.57;;;11.97;;
2618;SDS011;1319;52.346;13.096;2024-02-14T01:24:36;27.23;;;12.17;;
2618;SDS011;1319;52.346;13.096;2024-02-14T01:27:01;26.00;;;11.73;;
2618;SDS011;1319;52.346;13.096;2024-02-14T01:29:28;27.67;;;11.73;;
2618;SDS011;1319;52.346;13.096;2024-02-14T01:31:53;26.40;;;12.10;;
2618;SDS011;1319;52.346;13.096;2024-02-14T01:34:18;23.53;;;11.57;;
2618;SDS011;1319;52.346;13.096;2024-02-14T01:36:43;21.00;;;10.30;;
2618;SDS011;1319;52.346;13.096;2024-02-14T01:39:08;21.77;;;10.43;;
2618;SDS011;1319;52.346;13.096;2024-02-14T01:41:36;18.57;;;10.57;;
2618;SDS011;1319;52.346;13.096;2024-02-14T01:44:02;21.30;;;11.10;;
2618;SDS011;1319;52.346;13.096;2024-02-14T01:46:27;20.63;;;11.00;;
2618;SDS011;1319;52.346;13.096;2024-02-14T01:48:52;24.10;;;10.80;;
2618;SDS011;1319;52.346;13.096;2024-02-14T01:51:18;25.17;;;11.30;;
2618;SDS011;1319;52.346;13.096;2024-02-14T01:53:45;19.90;;;10.77;;
2618;SDS011;1319;52.346;13.096;2024-02-14T01:56:10;23.63;;;10.43;;
2618;SDS011;1319;52.346;13.096;2024-02-14T01:58:36;20.33;;;10.67;;
2618;SDS011;1319;52.346;13.096;2024-02-14T02:01:02;18.80;;;10.80;;
2618;SDS011;1319;52.346;13.096;2024-02-14T02:03:28;23.10;;;9.73;;
2618;SDS011;1319;52.346;13.096;2024-02-14T02:05:53;22.53;;;10.27;;
2618;SDS011;1319;52.346;13.096;2024-02-14T02:08:19;22.33;;;10.07;;
2618;SDS011;1319;52.346;13.096;2024-02-14T02:10:44;19.53;;;9.63;;
2618;SDS011;1319;52.346;13.096;2024-02-14T02:13:10;18.90;;;10.13;;
2618;SDS011;1319;52.346;13.096;2024-02-14T02:15:35;20.23;;;10.23;;
2618;SDS011;1319;52.346;13.096;2024-02-14T02:18:02;22.47;;;10.80;;
2618;SDS011;1319;52.346;13.096;2024-02-14T02:20:30;18.57;;;9.77;;
2618;SDS011;1319;52.346;13.096;2024-02-14T02:22:57;17.73;;;10.40;;
2618;SDS011;1319;52.346;13.096;2024-02-14T02:25:22;20.37;;;9.70;;
2618;SDS011;1319;52.346;13.096;2024-02-14T02:27:50;17.57;;;9.50;;
2618;SDS011;1319;52.346;13.096;2024-02-14T02:30:15;16.97;;;9.37;;
2618;SDS011;1319;52.346;13.096;2024-02-14T02:32:41;17.13;;;9.00;;
2618;SDS011;1319;52.346;13.096;2024-02-14T02:35:07;19.47;;;10.00;;
2618;SDS011;1319;52.346;13.096;2024-02-14T02:37:33;21.00;;;10.50;;
2618;SDS011;1319;52.346;13.096;2024-02-14T02:39:58;16.90;;;9.77;;
2618;SDS011;1319;52.346;13.096;2024-02-14T02:42:23;19.87;;;9.80;;
2618;SDS011;1319;52.346;13.096;2024-02-14T02:44:50;17.63;;;10.07;;
2618;SDS011;1319;52.346;13.096;2024-02-14T02:47:15;19.57;;;10.10;;
2618;SDS011;1319;52.346;13.096;2024-02-14T02:49:42;20.57;;;9.37;;
2618;SDS011;1319;52.346;13.096;2024-02-14T02:52:09;17.40;;;9.63;;
2618;SDS011;1319;52.346;13.096;2024-02-14T02:54:34;16.93;;;9.33;;
2618;SDS011;1319;52.346;13.096;2024-02-14T02:57:00;16.87;;;9.27;;
2618;SDS011;1319;52.346;13.096;2024-02-14T02:59:28;15.20;;;9.30;;
2618;SDS011;1319;52.346;13.096;2024-02-14T03:01:54;18.67;;;9.60;;
2618;SDS011;1319;52.346;13.096;2024-02-14T03:04:20;15.03;;;9.47;;
2618;SDS011;1319;52.346;13.096;2024-02-14T03:06:45;19.37;;;9.83;;
2618;SDS011;1319;52.346;13.096;2024-02-14T03:09:10;19.90;;;9.53;;
2618;SDS011;1319;52.346;13.096;2024-02-14T03:11:37;20.17;;;9.90;;
2618;SDS011;1319;52.346;13.096;2024-02-14T03:14:03;16.57;;;9.57;;
2618;SDS011;1319;52.346;13.096;2024-02-14T03:16:28;16.90;;;9.13;;
2618;SDS011;1319;52.346;13.096;2024-02-14T03:18:54;16.13;;;9.00;;
2618;SDS011;1319;52.346;13.096;2024-02-14T03:21:19;17.07;;;9.87;;
2618;SDS011;1319;52.346;13.096;2024-02-14T03:23:45;17.50;;;9.80;;
2618;SDS011;1319;52.346;13.096;2024-02-14T03:26:11;19.60;;;9.60;;
2618;SDS011;1319;52.346;13.096;2024-02-14T03:28:36;16.87;;;9.20;;
2618;SDS011;1319;52.346;13.096;2024-02-14T03:31:01;22.13;;;9.83;;
2618;SDS011;1319;52.346;13.096;2024-02-14T03:33:26;19.23;;;10.67;;
2618;SDS011;1319;52.346;13.096;2024-02-14T03:35:54;17.23;;;10.60;;
2618;SDS011;1319;52.346;13.096;2024-02-14T03:38:28;20.77;;;10.63;;
2618;SDS011;1319;52.346;13.096;2024-02-14T03:40:54;17.00;;;10.53;;
2618;SDS011;1319;52.346;13.096;2024-02-14T03:43:19;22.57;;;10.30;;
2618;SDS011;1319;52.346;13.096;2024-02-14T03:45:45;19.53;;;11.13;;
2618;SDS011;1319;52.346;13.096;2024-02-14T03:48:11;20.83;;;11.03;;
2618;SDS011;1319;52.346;13.096;2024-02-14T03:50:38;20.10;;;10.83;;
2618;SDS011;1319;52.346;13.096;2024-02-14T03:53:03;17.10;;;10.47;;
2618;SDS011;1319;52.346;13.096;2024-02-14T03:55:28;18.40;;;10.93;;
2618;SDS011;1319;52.346;13.096;2024-02-14T03:57:55;23.33;;;10.20;;
2618;SDS011;1319;52.346;13.096;2024-02-14T04:00:20;17.70;;;11.17;;
2618;SDS011;1319;52.346;13.096;2024-02-14T04:02:47;16.37;;;10.40;;
2618;SDS011;1319;52.346;13.096;2024-02-14T04:05:13;19.50;;;9.73;;
2618;SDS011;1319;52.346;13.096;2024-02-14T04:07:39;19.93;;;10.00;;
2618;SDS011;1319;52.346;13.096;2024-02-14T04:10:04;17.30;;;10.40;;
2618;SDS011;1319;52.346;13.096;2024-02-14T04:12:29;22.90;;;10.17;;
2618;SDS011;1319;52.346;13.096;2024-02-14T04:14:55;20.60;;;10.97;;
2618;SDS011;1319;52.346;13.096;2024-02-14T04:17:20;17.83;;;10.53;;
2618;SDS011;1319;52.346;13.096;2024-02-14T04:19:45;19.43;;;10.73;;
2618;SDS011;1319;52.346;13.096;2024-02-14T04:22:10;19.60;;;10.00;;
2618;SDS011;1319;52.346;13.096;2024-02-14T04:24:36;18.37;;;10.57;;
2618;SDS011;1319;52.346;13.096;2024-02-14T04:27:01;17.47;;;10.63;;
2618;SDS011;1319;52.346;13.096;2024-02-14T04:29:28;16.83;;;10.03;;
2618;SDS011;1319;52.346;13.096;2024-02-14T04:31:55;21.70;;;10.90;;
2618;SDS011;1319;52.346;13.096;2024-02-14T04:34:20;17.23;;;10.40;;
2618;SDS011;1319;52.346;13.096;2024-02-14T04:36:46;14.73;;;9.67;;
2618;SDS011;1319;52.346;13.096;2024-02-14T04:39:11;21.23;;;11.00;;
2618;SDS011;1319;52.346;13.096;2024-02-14T04:41:36;20.07;;;9.77;;
2618;SDS011;1319;52.346;13.096;2024-02-14T04:44:03;19.77;;;10.40;;
2618;SDS011;1319;52.346;13.096;2024-02-14T04:46:28;19.50;;;10.27;;
2618;SDS011;1319;52.346;13.096;2024-02-14T04:48:54;19.40;;;10.63;;
2618;SDS011;1319;52.346;13.096;2024-02-14T04:51:19;25.13;;;10.80;;
2618;SDS011;1319;52.346;13.096;2024-02-14T04:53:45;21.33;;;10.90;;
2618;SDS011;1319;52.346;13.096;2024-02-14T04:56:10;21.63;;;10.87;;
2618;SDS011;1319;52.346;13.096;2024-02-14T04:58:35;22.17;;;10.53;;
2618;SDS011;1319;52.346;13.096;2024-02-14T05:01:01;20.57;;;11.00;;
2618;SDS011;1319;52.346;13.096;2024-02-14T05:03:27;23.43;;;10.20;;
2618;SDS011;1319;52.346;13.096;2024-02-14T05:05:52;18.77;;;10.70;;
2618;SDS011;1319;52.346;13.096;2024-02-14T05:08:17;21.57;;;10.53;;
2618;SDS011;1319;52.346;13.096;2024-02-14T05:10:42;17.43;;;9.63;;
2618;SDS011;1319;52.346;13.096;2024-02-14T05:13:08;17.53;;;9.27;;
2618;SDS011;1319;52.346;13.096;2024-02-14T05:15:33;15.97;;;9.00;;
2618;SDS011;1319;52.346;13.096;2024-02-14T05:18:00;15.23;;;9.13;;
2618;SDS011;1319;52.346;13.096;2024-02-14T05:20:25;17.30;;;10.10;;
2618;SDS011;1319;52.346;13.096;2024-02-14T05:22:50;16.63;;;9.43;;
2618;SDS011;1319;52.346;13.096;2024-02-14T05:25:15;16.47;;;9.23;;
2618;SDS011;1319;52.346;13.096;2024-02-14T05:27:40;15.50;;;9.30;;
2618;SDS011;1319;52.346;13.096;2024-02-14T05:30:06;13.60;;;8.70;;
2618;SDS011;1319;52.346;13.096;2024-02-14T05:32:31;18.03;;;8.83;;
2618;SDS011;1319;52.346;13.096;2024-02-14T05:34:57;16.57;;;9.50;;
2618;SDS011;1319;52.346;13.096;2024-02-14T05:37:22;14.87;;;8.80;;
2618;SDS011;1319;52.346;13.096;2024-02-14T05:39:48;16.73;;;9.10;;
2618;SDS011;1319;52.346;13.096;2024-02-14T05:42:13;14.33;;;9.27;;
2618;SDS011;1319;52.346;13.096;2024-02-14T05:44:41;19.67;;;9.10;;
2618;SDS011;1319;52.346;13.096;2024-02-14T05:47:06;14.73;;;9.23;;
2618;SDS011;1319;52.346;13.096;2024-02-14T05:49:31;19.17;;;9.27;;
2618;SDS011;1319;52.346;13.096;2024-02-14T05:51:56;15.50;;;9.03;;
2618;SDS011;1319;52.346;13.096;2024-02-14T05:54:21;12.37;;;8.53;;
2618;SDS011;1319;52.346;13.096;2024-02-14T05:56:47;16.03;;;8.93;;
2618;SDS011;1319;52.346;13.096;2024-02-14T05:59:12;15.63;;;9.40;;
2618;SDS011;1319;52.346;13.096;2024-02-14T06:01:37;15.20;;;8.80;;
2618;SDS011;1319;52.346;13.096;2024-02-14T06:04:03;14.30;;;8.67;;
2618;SDS011;1319;52.346;13.096;2024-02-14T06:06:28;16.37;;;8.90;;
2618;SDS011;1319;52.346;13.096;2024-02-14T06:08:54;14.13;;;8.77;;
2618;SDS011;1319;52.346;13.096;2024-02-14T06:11:19;15.70;;;8.30;;
2618;SDS011;1319;52.346;13.096;2024-02-14T06:13:46;12.83;;;8.50;;
2618;SDS011;1319;52.346;13.096;2024-02-14T06:16:12;13.17;;;8.37;;
2618;SDS011;1319;52.346;13.096;2024-02-14T06:18:37;12.67;;;7.70;;
2618;SDS011;1319;52.346;13.096;2024-02-14T06:21:02;14.47;;;8.17;;
2618;SDS011;1319;52.346;13.096;2024-02-14T06:23:27;17.80;;;7.80;;
2618;SDS011;1319;52.346;13.096;2024-02-14T06:25:53;14.10;;;7.70;;
2618;SDS011;1319;52.346;13.096;2024-02-14T06:28:18;13.53;;;8.17;;
2618;SDS011;1319;52.346;13.096;2024-02-14T06:30:43;12.97;;;7.57;;
2618;SDS011;1319;52.346;13.096;2024-02-14T06:33:08;10.97;;;7.33;;
2618;SDS011;1319;52.346;13.096;2024-02-14T06:35:34;11.53;;;7.27;;
2618;SDS011;1319;52.346;13.096;2024-02-14T06:37:59;11.37;;;6.83;;
2618;SDS011;1319;52.346;13.096;2024-02-14T06:40:25;11.87;;;7.20;;
2618;SDS011;1319;52.346;13.096;2024-02-14T06:42:51;11.60;;;6.93;;
2618;SDS011;1319;52.346;13.096;2024-02-14T06:45:17;11.80;;;6.83;;
2618;SDS011;1319;52.346;13.096;2024-02-14T06:47:42;10.63;;;7.00;;
2618;SDS011;1319;52.346;13.096;2024-02-14T06:50:07;12.37;;;6.33;;
2618;SDS011;1319;52.346;13.096;2024-02-14T06:52:33;9.33;;;6.10;;
2618;SDS011;1319;52.346;13.096;2024-02-14T06:54:58;10.80;;;6.27;;
2618;SDS011;1319;52.346;13.096;2024-02-14T06:57:23;12.97;;;6.47;;
2618;SDS011;1319;52.346;13.096;2024-02-14T06:59:49;13.13;;;6.83;;
2618;SDS011;1319;52.346;13.096;2024-02-14T07:02:14;12.63;;;7.30;;
2618;SDS011;1319;52.346;13.096;2024-02-14T07:04:39;13.30;;;6.90;;
2618;SDS011;1319;52.346;13.096;2024-02-14T07:07:04;14.30;;;7.50;;
2618;SDS011;1319;52.346;13.096;2024-02-14T07:09:30;12.33;;;6.87;;
2618;SDS011;1319;52.346;13.096;2024-02-14T07:11:55;14.73;;;6.87;;
2618;SDS011;1319;52.346;13.096;2024-02-14T07:14:23;8.20;;;5.80;;
2618;SDS011;1319;52.346;13.096;2024-02-14T07:16:48;12.80;;;6.37;;
2618;SDS011;1319;52.346;13.096;2024-02-14T07:19:13;9.73;;;5.80;;
2618;SDS011;1319;52.346;13.096;2024-02-14T07:21:38;11.13;;;5.60;;
2618;SDS011;1319;52.346;13.096;2024-02-14T07:24:05;10.00;;;5.20;;
2618;SDS011;1319;52.346;13.096;2024-02-14T07:26:30;8.70;;;5.73;;
2618;SDS011;1319;52.346;13.096;2024-02-14T07:28:55;11.13;;;5.30;;
2618;SDS011;1319;52.346;13.096;2024-02-14T07:31:21;8.17;;;4.80;;
2618;SDS011;1319;52.346;13.096;2024-02-14T07:33:46;8.47;;;4.53;;
2618;SDS011;1319;52.346;13.096;2024-02-14T07:36:12;7.73;;;4.63;;
2618;SDS011;1319;52.346;13.096;2024-02-14T07:38:37;12.47;;;5.03;;
2618;SDS011;1319;52.346;13.096;2024-02-14T07:41:03;11.57;;;5.30;;
2618;SDS011;1319;52.346;13.096;2024-02-14T07:43:28;6.93;;;4.70;;
2618;SDS011;1319;52.346;13.096;2024-02-14T07:45:53;10.27;;;4.70;;
2618;SDS011;1319;52.346;13.096;2024-02-14T07:48:18;6.10;;;4.30;;
2618;SDS011;1319;52.346;13.096;2024-02-14T07:50:43;9.03;;;4.60;;
2618;SDS011;1319;52.346;13.096;2024-02-14T07:53:09;9.70;;;4.33;;
2618;SDS011;1319;52.346;13.096;2024-02-14T07:55:34;8.77;;;4.40;;
2618;SDS011;1319;52.346;13.096;2024-02-14T07:57:59;6.40;;;4.33;;
2618;SDS011;1319;52.346;13.096;2024-02-14T08:00:25;7.90;;;4.77;;
2618;SDS011;1319;52.346;13.096;2024-02-14T08:02:50;6.13;;;4.47;;
2618;SDS011;1319;52.346;13.096;2024-02-14T08:05:16;6.53;;;4.47;;
2618;SDS011;1319;52.346;13.096;2024-02-14T08:07:41;8.77;;;4.60;;
2618;SDS011;1319;52.346;13.096;2024-02-14T08:10:06;8.23;;;4.57;;
2618;SDS011;1319;52.346;13.096;2024-02-14T08:12:32;6.90;;;4.43;;
2618;SDS011;1319;52.346;13.096;2024-02-14T08:14:57;6.17;;;4.53;;
2618;SDS011;1319;52.346;13.096;2024-02-14T08:17:22;5.30;;;4.27;;
2618;SDS011;1319;52.346;13.096;2024-02-14T08:19:47;6.97;;;4.60;;
2618;SDS011;1319;52.346;13.096;2024-02-14T08:22:13;7.63;;;4.67;;
2618;SDS011;1319;52.346;13.096;2024-02-14T08:24:38;7.03;;;4.20;;
2618;SDS011;1319;52.346;13.096;2024-02-14T08:27:03;10.73;;;4.00;;
2618;SDS011;1319;52.346;13.096;2024-02-14T08:29:31;8.47;;;4.17;;
2618;SDS011;1319;52.346;13.096;2024-02-14T08:31:56;6.57;;;4.20;;
2618;SDS011;1319;52.346;13.096;2024-02-14T08:34:22;9.10;;;4.40;;
2618;SDS011;1319;52.346;13.096;2024-02-14T08:36:47;6.50;;;4.53;;
2618;SDS011;1319;52.346;13.096;2024-02-14T08:39:12;8.67;;;4.70;;
2618;SDS011;1319;52.346;13.096;2024-02-14T08:41:38;5.90;;;4.30;;
2618;SDS011;1319;52.346;13.096;2024-02-14T08:44:03;5.67;;;4.20;;
2618;SDS011;1319;52.346;13.096;2024-02-14T08:46:30;5.53;;;3.83;;
2618;SDS011;1319;52.346;13.096;2024-02-14T08:48:55;4.57;;;3.80;;
2618;SDS011;1319;52.346;13.096;2024-02-14T08:51:20;6.27;;;3.97;;
2618;SDS011;1319;52.346;13.096;2024-02-14T08:53:46;10.27;;;4.60;;
2618;SDS011;1319;52.346;13.096;2024-02-14T08:56:11;5.10;;;3.70;;
2618;SDS011;1319;52.346;13.096;2024-02-14T08:58:37;8.67;;;4.50;;
2618;SDS011;1319;52.346;13.096;2024-02-14T09:01:02;6.70;;;4.10;;
2618;SDS011;1319;52.346;13.096;2024-02-14T09:03:27;9.27;;;4.40;;
2618;SDS011;1319;52.346;13.096;2024-02-14T09:05:52;5.13;;;4.30;;
2618;SDS011;1319;52.346;13.096;2024-02-14T09:08:21;9.80;;;4.50;;
2618;SDS011;1319;52.346;13.096;2024-02-14T09:10:47;6.20;;;4.27;;
2618;SDS011;1319;52.346;13.096;2024-02-14T09:13:13;9.00;;;4.00;;
2618;SDS011;1319;52.346;13.096;2024-02-14T09:15:38;6.83;;;4.10;;
2618;SDS011;1319;52.346;13.096;2024-02-14T09:18:04;6.20;;;4.20;;
2618;SDS011;1319;52.346;13.096;2024-02-14T09:20:29;9.13;;;4.77;;
2618;SDS011;1319;52.346;13.096;2024-02-14T09:22:55;10.03;;;4.23;;
2618;SDS011;1319;52.346;13.096;2024-02-14T09:25:20;9.97;;;4.80;;
2618;SDS011;1319;52.346;13.096;2024-02-14T09:27:49;8.23;;;4.50;;
2618;SDS011;1319;52.346;13.096;2024-02-14T09:30:14;8.60;;;4.80;;
2618;SDS011;1319;52.346;13.096;2024-02-14T09:32:42;8.30;;;4.27;;
2618;SDS011;1319;52.346;13.096;2024-02-14T09:35:07;7.73;;;4.47;;
2618;SDS011;1319;52.346;13.096;2024-02-14T09:37:32;7.97;;;4.40;;
2618;SDS011;1319;52.346;13.096;2024-02-14T09:39:58;9.97;;;4.30;;
2618;SDS011;1319;52.346;13.096;2024-02-14T09:42:27;9.57;;;4.33;;
2618;SDS011;1319;52.346;13.096;2024-02-14T09:44:53;6.77;;;4.53;;
2618;SDS011;1319;52.346;13.096;2024-02-14T09:47:22;6.70;;;4.30;;
2618;SDS011;1319;52.346;13.096;2024-02-14T09:49:48;6.90;;;4.40;;
2618;SDS011;1319;52.346;13.096;2024-02-14T09:52:13;8.83;;;4.60;;
2618;SDS011;1319;52.346;13.096;2024-02-14T09:54:40;6.27;;;4.40;;
2618;SDS011;1319;52.346;13.096;2024-02-14T09:57:05;9.17;;;4.50;;
2618;SDS011;1319;52.346;13.096;2024-02-14T09:59:31;6.37;;;4.13;;
2618;SDS011;1319;52.346;13.096;2024-02-14T10:01:57;5.50;;;4.33;;
2618;SDS011;1319;52.346;13.096;2024-02-14T10:04:22;9.07;;;4.00;;
2618;SDS011;1319;52.346;13.096;2024-02-14T10:06:49;5.60;;;3.97;;
2618;SDS011;1319;52.346;13.096;2024-02-14T10:09:21;6.60;;;3.93;;
2618;SDS011;1319;52.346;13.096;2024-02-14T10:11:47;5.57;;;4.30;;
2618;SDS011;1319;52.346;13.096;2024-02-14T10:14:12;6.27;;;3.90;;
2618;SDS011;1319;52.346;13.096;2024-02-14T10:16:37;5.67;;;4.10;;
2618;SDS011;1319;52.346;13.096;2024-02-14T10:19:03;5.43;;;4.13;;
2618;SDS011;1319;52.346;13.096;2024-02-14T10:21:29;4.90;;;3.97;;
2618;SDS011;1319;52.346;13.096;2024-02-14T10:23:54;6.63;;;4.17;;
2618;SDS011;1319;52.346;13.096;2024-02-14T10:26:22;6.47;;;3.87;;
2618;SDS011;1319;52.346;13.096;2024-02-14T10:28:48;5.07;;;3.90;;
2618;SDS011;1319;52.346;13.096;2024-02-14T10:31:14;4.40;;;3.43;;
2618;SDS011;1319;52.346;13.096;2024-02-14T10:33:40;7.20;;;3.90;;
2618;SDS011;1319;52.346;13.096;2024-02-14T10:36:07;6.80;;;3.43;;
2618;SDS011;1319;52.346;13.096;2024-02-14T10:38:32;7.97;;;4.10;;
2618;SDS011;1319;52.346;13.096;2024-02-14T10:40:58;5.20;;;4.33;;
2618;SDS011;1319;52.346;13.096;2024-02-14T10:43:25;6.27;;;3.70;;
2618;SDS011;1319;52.346;13.096;2024-02-14T10:45:50;5.77;;;3.90;;
2618;SDS011;1319;52.346;13.096;2024-02-14T10:48:17;5.20;;;3.37;;
2618;SDS011;1319;52.346;13.096;2024-02-14T10:50:43;5.13;;;3.83;;
2618;SDS011;1319;52.346;13.096;2024-02-14T10:53:13;12.13;;;4.30;;
2618;SDS011;1319;52.346;13.096;2024-02-14T10:55:38;4.67;;;3.47;;
2618;SDS011;1319;52.346;13.096;2024-02-14T10:58:05;7.60;;;5.00;;
2618;SDS011;1319;52.346;13.096;2024-02-14T11:00:31;5.70;;;3.97;;
2618;SDS011;1319;52.346;13.096;2024-02-14T11:02:57;4.83;;;4.27;;
2618;SDS011;1319;52.346;13.096;2024-02-14T11:05:23;5.20;;;3.90;;
2618;SDS011;1319;52.346;13.096;2024-02-14T11:07:51;5.57;;;4.10;;
2618;SDS011;1319;52.346;13.096;2024-02-14T11:10:18;7.10;;;4.00;;
2618;SDS011;1319;52.346;13.096;2024-02-14T11:12:43;6.40;;;3.80;;
2618;SDS011;1319;52.346;13.096;2024-02-14T11:17:41;6.33;;;3.83;;
2618;SDS011;1319;52.346;13.096;2024-02-14T11:20:12;6.50;;;4.23;;
2618;SDS011;1319;52.346;13.096;2024-02-14T11:22:37;4.43;;;3.70;;
2618;SDS011;1319;52.346;13.096;2024-02-14T11:25:06;3.73;;;3.40;;
2618;SDS011;1319;52.346;13.096;2024-02-14T11:27:32;5.57;;;4.30;;
2618;SDS011;1319;52.346;13.096;2024-02-14T11:29:58;6.07;;;4.03;;
2618;SDS011;1319;52.346;13.096;2024-02-14T11:32:24;4.83;;;3.97;;
2618;SDS011;1319;52.346;13.096;2024-02-14T11:34:55;6.90;;;4.60;;
2618;SDS011;1319;52.346;13.096;2024-02-14T11:37:27;6.43;;;4.70;;
2618;SDS011;1319;52.346;13.096;2024-02-14T11:39:52;7.40;;;4.23;;
2618;SDS011;1319;52.346;13.096;2024-02-14T11:42:20;7.30;;;4.60;;
2618;SDS011;1319;52.346;13.096;2024-02-14T11:44:45;7.13;;;4.40;;
2618;SDS011;1319;52.346;13.096;2024-02-14T11:47:11;6.73;;;4.30;;
2618;SDS011;1319;52.346;13.096;2024-02-14T11:49:36;10.17;;;4.40;;
2618;SDS011;1319;52.346;13.096;2024-02-14T11:52:04;4.70;;;4.07;;
2618;SDS011;1319;52.346;13.096;2024-02-14T11:54:29;6.80;;;4.67;;
2618;SDS011;1319;52.346;13.096;2024-02-14T11:56:54;6.93;;;4.53;;
2618;SDS011;1319;52.346;13.096;2024-02-14T11:59:20;6.90;;;4.43;;
2618;SDS011;1319;52.346;13.096;2024-02-14T12:01:45;5.40;;;4.20;;
2618;SDS011;1319;52.346;13.096;2024-02-14T12:04:11;6.73;;;4.50;;
2618;SDS011;1319;52.346;13.096;2024-02-14T12:06:38;7.07;;;4.27;;
2618;SDS011;1319;52.346;13.096;2024-02-14T12:09:06;8.07;;;4.30;;
2618;SDS011;1319;52.346;13.096;2024-02-14T12:11:34;9.77;;;4.30;;
2618;SDS011;1319;52.346;13.096;2024-02-14T12:14:05;7.23;;;3.83;;
2618;SDS011;1319;52.346;13.096;2024-02-14T12:16:30;6.87;;;4.40;;
2618;SDS011;1319;52.346;13.096;2024-02-14T12:19:03;9.83;;;4.30;;
2618;SDS011;1319;52.346;13.096;2024-02-14T12:21:32;5.90;;;4.20;;
2618;SDS011;1319;52.346;13.096;2024-02-14T12:23:58;9.47;;;4.77;;
2618;SDS011;1319;52.346;13.096;2024-02-14T12:26:24;6.80;;;4.07;;
2618;SDS011;1319;52.346;13.096;2024-02-14T12:28:49;9.33;;;4.20;;
2618;SDS011;1319;52.346;13.096;2024-02-14T12:31:23;7.27;;;4.27;;
2618;SDS011;1319;52.346;13.096;2024-02-14T12:33:48;4.53;;;4.07;;
2618;SDS011;1319;52.346;13.096;2024-02-14T12:36:14;5.87;;;4.10;;
2618;SDS011;1319;52.346;13.096;2024-02-14T12:38:39;5.87;;;4.10;;
2618;SDS011;1319;52.346;13.096;2024-02-14T12:41:04;8.77;;;4.20;;
2618;SDS011;1319;52.346;13.096;2024-02-14T12:43:30;8.83;;;4.17;;
2618;SDS011;1319;52.346;13.096;2024-02-14T12:45:55;5.90;;;3.83;;
2618;SDS011;1319;52.346;13.096;2024-02-14T12:48:23;4.83;;;4.03;;
2618;SDS011;1319;52.346;13.096;2024-02-14T12:50:51;6.23;;;4.20;;
2618;SDS011;1319;52.346;13.096;2024-02-14T12:53:17;6.20;;;4.10;;
2618;SDS011;1319;52.346;13.096;2024-02-14T12:55:42;5.57;;;3.80;;
2618;SDS011;1319;52.346;13.096;2024-02-14T12:58:07;9.30;;;4.30;;
2618;SDS011;1319;52.346;13.096;2024-02-14T13:00:34;3.97;;;3.53;;
2618;SDS011;1319;52.346;13.096;2024-02-14T13:03:00;9.20;;;4.83;;
2618;SDS011;1319;52.346;13.096;2024-02-14T13:05:25;4.33;;;3.93;;
2618;SDS011;1319;52.346;13.096;2024-02-14T13:07:51;6.33;;;3.77;;
2618;SDS011;1319;52.346;13.096;2024-02-14T13:10:16;7.47;;;4.30;;
2618;SDS011;1319;52.346;13.096;2024-02-14T13:12:41;7.63;;;4.27;;
2618;SDS011;1319;52.346;13.096;2024-02-14T13:15:08;4.27;;;3.73;;
2618;SDS011;1319;52.346;13.096;2024-02-14T13:17:34;6.03;;;3.97;;
2618;SDS011;1319;52.346;13.096;2024-02-14T13:19:59;7.57;;;4.70;;
2618;SDS011;1319;52.346;13.096;2024-02-14T13:22:25;8.97;;;4.50;;
2618;SDS011;1319;52.346;13.096;2024-02-14T13:24:50;5.93;;;4.63;;
2618;SDS011;1319;52.346;13.096;2024-02-14T13:27:15;6.47;;;4.70;;
2618;SDS011;1319;52.346;13.096;2024-02-14T13:29:40;6.90;;;4.63;;
2618;SDS011;1319;52.346;13.096;2024-02-14T13:32:06;9.60;;;4.17;;
2618;SDS011;1319;52.346;13.096;2024-02-14T13:34:32;12.20;;;4.77;;
2618;SDS011;1319;52.346;13.096;2024-02-14T13:36:58;7.27;;;4.60;;
2618;SDS011;1319;52.346;13.096;2024-02-14T13:39:23;8.73;;;4.53;;
2618;SDS011;1319;52.346;13.096;2024-02-14T13:41:48;10.07;;;5.47;;
2618;SDS011;1319;52.346;13.096;2024-02-14T13:44:13;6.63;;;4.63;;
2618;SDS011;1319;52.346;13.096;2024-02-14T13:46:43;6.60;;;4.87;;
2618;SDS011;1319;52.346;13.096;2024-02-14T13:49:08;8.40;;;5.33;;
2618;SDS011;1319;52.346;13.096;2024-02-14T13:51:35;9.50;;;5.20;;
2618;SDS011;1319;52.346;13.096;2024-02-14T13:54:01;5.87;;;4.67;;
2618;SDS011;1319;52.346;13.096;2024-02-14T13:56:26;7.63;;;5.07;;
2618;SDS011;1319;52.346;13.096;2024-02-14T13:58:51;7.73;;;4.63;;
2618;SDS011;1319;52.346;13.096;2024-02-14T14:01:16;6.03;;;4.73;;
2618;SDS011;1319;52.346;13.096;2024-02-14T14:03:42;8.80;;;5.50;;
2618;SDS011;1319;52.346;13.096;2024-02-14T14:06:07;8.33;;;4.80;;
2618;SDS011;1319;52.346;13.096;2024-02-14T14:08:36;7.60;;;5.20;;
2618;SDS011;1319;52.346;13.096;2024-02-14T14:11:04;8.23;;;5.07;;
2618;SDS011;1319;52.346;13.096;2024-02-14T14:13:29;7.73;;;5.20;;
2618;SDS011;1319;52.346;13.096;2024-02-14T14:15:59;6.80;;;5.20;;
2618;SDS011;1319;52.346;13.096;2024-02-14T14:18:24;7.87;;;5.30;;
2618;SDS011;1319;52.346;13.096;2024-02-14T14:20:49;5.90;;;5.07;;
2618;SDS011;1319;52.346;13.096;2024-02-14T14:23:15;5.03;;;4.50;;
2618;SDS011;1319;52.346;13.096;2024-02-14T14:25:41;6.13;;;4.90;;
2618;SDS011;1319;52.346;13.096;2024-02-14T14:28:06;7.87;;;4.83;;
2618;SDS011;1319;52.346;13.096;2024-02-14T14:30:31;8.03;;;5.13;;
2618;SDS011;1319;52.346;13.096;2024-02-14T14:32:56;6.60;;;5.00;;
2618;SDS011;1319;52.346;13.096;2024-02-14T14:35:21;8.00;;;4.53;;
2618;SDS011;1319;52.346;13.096;2024-02-14T14:37:47;8.87;;;4.60;;
2618;SDS011;1319;52.346;13.096;2024-02-14T14:40:12;13.80;;;5.40;;
2618;SDS011;1319;52.346;13.096;2024-02-14T14:42:37;7.63;;;3.83;;
2618;SDS011;1319;52.346;13.096;2024-02-14T14:45:03;8.03;;;4.27;;